sensor_id;sensor_type;location;lat;lon;timestamp;temperature;humidity
22224;DHT22;11281;52.194;21.006;2023-07-29T00:02:20;15.00;99.90
22224;DHT22;11281;52.194;21.006;2023-07-29T00:06:22;15.00;99.90
22224;DHT22;11281;52.194;21.006;2023-07-29T00:10:23;15.10;99.90
22224;DHT22;11281;52.194;21.006;2023-07-29T00:14:25;15.00;99.90
22224;DHT22;11281;52.194;21.006;2023-07-29T00:18:27;14.90;99.90
22224;DHT22;11281;52.194;21.006;2023-07-29T00:22:29;14.70;99.90
22224;DHT22;11281;52.194;21.006;2023-07-29T00:26:31;14.60;99.90
22224;DHT22;11281;52.194;21.006;2023-07-29T00:30:33;14.40;99.90
22224;DHT22;11281;52.194;21.006;2023-07-29T00:34:35;14.30;99.90
22224;DHT22;11281;52.194;21.006;2023-07-29T00:38:37;14.20;99.90
22224;DHT22;11281;52.194;21.006;2023-07-29T00:42:38;14.20;99.90
22224;DHT22;11281;52.194;21.006;2023-07-29T00:46:45;14.10;99.90
22224;DHT22;11281;52.194;21.006;2023-07-29T00:50:49;14.00;99.90
22224;DHT22;11281;52.194;21.006;2023-07-29T00:54:51;14.00;99.90
22224;DHT22;11281;52.194;21.006;2023-07-29T00:58:54;13.90;99.90
22224;DHT22;11281;52.194;21.006;2023-07-29T01:02:59;13.90;99.90
22224;DHT22;11281;52.194;21.006;2023-07-29T01:07:03;13.80;99.90
22224;DHT22;11281;52.194;21.006;2023-07-29T01:16:13;13.70;99.90
22224;DHT22;11281;52.194;21.006;2023-07-29T01:20:20;13.70;99.90
22224;DHT22;11281;52.194;21.006;2023-07-29T01:24:22;13.70;99.90
22224;DHT22;11281;52.194;21.006;2023-07-29T01:28:24;13.70;99.90
22224;DHT22;11281;52.194;21.006;2023-07-29T01:36:37;13.60;99.90
22224;DHT22;11281;52.194;21.006;2023-07-29T01:40:42;13.60;99.90
22224;DHT22;11281;52.194;21.006;2023-07-29T01:44:45;13.60;99.90
22224;DHT22;11281;52.194;21.006;2023-07-29T01:48:47;13.50;99.90
22224;DHT22;11281;52.194;21.006;2023-07-29T01:52:49;13.50;99.90
22224;DHT22;11281;52.194;21.006;2023-07-29T01:56:51;13.50;99.90
22224;DHT22;11281;52.194;21.006;2023-07-29T02:00:53;13.60;99.90
22224;DHT22;11281;52.194;21.006;2023-07-29T02:04:54;13.60;99.90
22224;DHT22;11281;52.194;21.006;2023-07-29T02:08:56;13.70;99.90
22224;DHT22;11281;52.194;21.006;2023-07-29T02:12:58;13.80;99.90
22224;DHT22;11281;52.194;21.006;2023-07-29T02:17:00;13.70;99.90
22224;DHT22;11281;52.194;21.006;2023-07-29T02:21:02;13.70;99.90
22224;DHT22;11281;52.194;21.006;2023-07-29T02:25:04;13.60;99.90
22224;DHT22;11281;52.194;21.006;2023-07-29T02:29:06;13.60;99.90
22224;DHT22;11281;52.194;21.006;2023-07-29T02:33:08;13.80;99.90
22224;DHT22;11281;52.194;21.006;2023-07-29T02:37:10;13.70;99.90
22224;DHT22;11281;52.194;21.006;2023-07-29T02:41:12;13.60;99.90
22224;DHT22;11281;52.194;21.006;2023-07-29T02:45:14;13.50;99.90
22224;DHT22;11281;52.194;21.006;2023-07-29T02:49:16;13.40;99.90
22224;DHT22;11281;52.194;21.006;2023-07-29T02:53:18;13.30;99.90
22224;DHT22;11281;52.194;21.006;2023-07-29T02:57:20;13.20;99.90
22224;DHT22;11281;52.194;21.006;2023-07-29T03:01:23;13.10;99.90
22224;DHT22;11281;52.194;21.006;2023-07-29T03:05:28;13.10;99.90
22224;DHT22;11281;52.194;21.006;2023-07-29T03:09:30;13.10;99.90
22224;DHT22;11281;52.194;21.006;2023-07-29T03:13:32;13.10;99.90
22224;DHT22;11281;52.194;21.006;2023-07-29T03:17:34;13.00;99.90
22224;DHT22;11281;52.194;21.006;2023-07-29T03:21:35;12.90;99.90
22224;DHT22;11281;52.194;21.006;2023-07-29T03:25:37;12.90;99.90
22224;DHT22;11281;52.194;21.006;2023-07-29T03:29:38;12.80;99.90
22224;DHT22;11281;52.194;21.006;2023-07-29T03:33:40;12.80;99.90
22224;DHT22;11281;52.194;21.006;2023-07-29T03:37:42;12.80;99.90
22224;DHT22;11281;52.194;21.006;2023-07-29T03:41:43;12.90;99.90
22224;DHT22;11281;52.194;21.006;2023-07-29T03:45:45;13.00;99.90
22224;DHT22;11281;52.194;21.006;2023-07-29T03:49:47;13.20;99.90
22224;DHT22;11281;52.194;21.006;2023-07-29T03:53:48;13.40;99.90
22224;DHT22;11281;52.194;21.006;2023-07-29T03:57:50;13.50;99.90
22224;DHT22;11281;52.194;21.006;2023-07-29T04:01:52;13.60;99.90
22224;DHT22;11281;52.194;21.006;2023-07-29T04:05:54;13.80;99.90
22224;DHT22;11281;52.194;21.006;2023-07-29T04:09:56;13.80;99.90
22224;DHT22;11281;52.194;21.006;2023-07-29T04:13:58;14.00;99.90
22224;DHT22;11281;52.194;21.006;2023-07-29T04:18:00;14.10;99.90
22224;DHT22;11281;52.194;21.006;2023-07-29T04:22:02;14.10;99.90
22224;DHT22;11281;52.194;21.006;2023-07-29T04:26:04;14.30;99.90
22224;DHT22;11281;52.194;21.006;2023-07-29T04:30:06;14.30;99.90
22224;DHT22;11281;52.194;21.006;2023-07-29T04:34:08;14.20;99.90
22224;DHT22;11281;52.194;21.006;2023-07-29T04:38:10;14.40;99.90
22224;DHT22;11281;52.194;21.006;2023-07-29T04:42:11;14.70;99.90
22224;DHT22;11281;52.194;21.006;2023-07-29T04:46:14;14.70;99.90
22224;DHT22;11281;52.194;21.006;2023-07-29T04:50:15;14.80;99.90
22224;DHT22;11281;52.194;21.006;2023-07-29T04:54:17;14.90;99.90
22224;DHT22;11281;52.194;21.006;2023-07-29T04:58:21;15.10;99.90
22224;DHT22;11281;52.194;21.006;2023-07-29T05:02:23;15.10;99.90
22224;DHT22;11281;52.194;21.006;2023-07-29T05:06:25;15.20;99.90
22224;DHT22;11281;52.194;21.006;2023-07-29T05:10:27;15.30;99.90
22224;DHT22;11281;52.194;21.006;2023-07-29T05:14:29;15.10;99.90
22224;DHT22;11281;52.194;21.006;2023-07-29T05:18:31;15.20;99.90
22224;DHT22;11281;52.194;21.006;2023-07-29T05:22:33;15.50;99.90
22224;DHT22;11281;52.194;21.006;2023-07-29T05:26:35;15.40;99.90
22224;DHT22;11281;52.194;21.006;2023-07-29T05:30:36;15.60;99.90
22224;DHT22;11281;52.194;21.006;2023-07-29T05:34:38;15.70;99.90
22224;DHT22;11281;52.194;21.006;2023-07-29T05:38:41;15.90;99.90
22224;DHT22;11281;52.194;21.006;2023-07-29T05:42:43;16.10;99.90
22224;DHT22;11281;52.194;21.006;2023-07-29T05:46:46;16.40;99.90
22224;DHT22;11281;52.194;21.006;2023-07-29T05:50:48;16.60;99.90
22224;DHT22;11281;52.194;21.006;2023-07-29T05:54:51;16.80;99.90
22224;DHT22;11281;52.194;21.006;2023-07-29T05:58:52;16.90;99.90
22224;DHT22;11281;52.194;21.006;2023-07-29T06:02:54;17.10;99.90
22224;DHT22;11281;52.194;21.006;2023-07-29T06:06:56;16.80;99.90
22224;DHT22;11281;52.194;21.006;2023-07-29T06:10:58;16.80;99.90
22224;DHT22;11281;52.194;21.006;2023-07-29T06:15:00;16.80;99.90
22224;DHT22;11281;52.194;21.006;2023-07-29T06:19:01;19.30;99.90
22224;DHT22;11281;52.194;21.006;2023-07-29T06:23:03;18.20;99.90
22224;DHT22;11281;52.194;21.006;2023-07-29T06:27:05;17.70;99.90
22224;DHT22;11281;52.194;21.006;2023-07-29T06:31:07;17.60;99.90
22224;DHT22;11281;52.194;21.006;2023-07-29T06:35:09;18.00;99.90
22224;DHT22;11281;52.194;21.006;2023-07-29T06:39:10;18.10;99.90
22224;DHT22;11281;52.194;21.006;2023-07-29T06:43:11;18.70;99.90
22224;DHT22;11281;52.194;21.006;2023-07-29T06:47:13;19.10;99.90
22224;DHT22;11281;52.194;21.006;2023-07-29T06:51:15;19.10;99.90
22224;DHT22;11281;52.194;21.006;2023-07-29T06:55:17;19.40;99.90
22224;DHT22;11281;52.194;21.006;2023-07-29T06:59:19;20.00;99.90
22224;DHT22;11281;52.194;21.006;2023-07-29T07:03:21;20.00;99.90
22224;DHT22;11281;52.194;21.006;2023-07-29T07:07:23;20.00;99.90
22224;DHT22;11281;52.194;21.006;2023-07-29T07:11:25;19.60;99.90
22224;DHT22;11281;52.194;21.006;2023-07-29T07:15:27;19.80;99.90
22224;DHT22;11281;52.194;21.006;2023-07-29T07:19:28;19.70;99.90
22224;DHT22;11281;52.194;21.006;2023-07-29T07:23:30;19.70;99.90
22224;DHT22;11281;52.194;21.006;2023-07-29T07:27:32;19.50;99.90
22224;DHT22;11281;52.194;21.006;2023-07-29T07:31:34;19.50;99.90
22224;DHT22;11281;52.194;21.006;2023-07-29T07:35:36;19.70;99.90
22224;DHT22;11281;52.194;21.006;2023-07-29T07:39:39;19.70;99.90
22224;DHT22;11281;52.194;21.006;2023-07-29T07:43:41;20.00;99.90
22224;DHT22;11281;52.194;21.006;2023-07-29T07:47:42;19.60;99.90
22224;DHT22;11281;52.194;21.006;2023-07-29T07:51:44;19.60;99.90
22224;DHT22;11281;52.194;21.006;2023-07-29T07:55:45;19.60;99.90
22224;DHT22;11281;52.194;21.006;2023-07-29T07:59:47;19.70;99.90
22224;DHT22;11281;52.194;21.006;2023-07-29T08:03:49;19.70;99.90
22224;DHT22;11281;52.194;21.006;2023-07-29T08:07:51;19.60;99.90
22224;DHT22;11281;52.194;21.006;2023-07-29T08:11:52;19.80;99.90
22224;DHT22;11281;52.194;21.006;2023-07-29T08:15:54;20.20;99.90
22224;DHT22;11281;52.194;21.006;2023-07-29T08:19:56;20.00;99.90
22224;DHT22;11281;52.194;21.006;2023-07-29T08:23:58;20.40;99.90
22224;DHT22;11281;52.194;21.006;2023-07-29T08:28:00;20.70;99.90
22224;DHT22;11281;52.194;21.006;2023-07-29T08:32:02;20.50;99.90
22224;DHT22;11281;52.194;21.006;2023-07-29T08:36:04;21.00;99.90
22224;DHT22;11281;52.194;21.006;2023-07-29T08:40:07;21.00;99.90
22224;DHT22;11281;52.194;21.006;2023-07-29T08:44:12;20.50;99.90
22224;DHT22;11281;52.194;21.006;2023-07-29T08:48:29;20.60;99.90
22224;DHT22;11281;52.194;21.006;2023-07-29T08:52:42;20.80;99.90
22224;DHT22;11281;52.194;21.006;2023-07-29T08:56:46;21.00;99.90
22224;DHT22;11281;52.194;21.006;2023-07-29T09:00:48;21.30;99.90
22224;DHT22;11281;52.194;21.006;2023-07-29T09:04:51;21.40;99.90
22224;DHT22;11281;52.194;21.006;2023-07-29T09:08:53;21.40;99.90
22224;DHT22;11281;52.194;21.006;2023-07-29T09:12:55;21.70;99.90
22224;DHT22;11281;52.194;21.006;2023-07-29T09:16:57;22.00;99.90
22224;DHT22;11281;52.194;21.006;2023-07-29T09:20:59;22.10;99.90
22224;DHT22;11281;52.194;21.006;2023-07-29T09:25:04;22.10;99.90
22224;DHT22;11281;52.194;21.006;2023-07-29T09:29:07;22.20;99.90
22224;DHT22;11281;52.194;21.006;2023-07-29T09:33:09;22.50;99.90
22224;DHT22;11281;52.194;21.006;2023-07-29T09:37:21;22.40;99.90
22224;DHT22;11281;52.194;21.006;2023-07-29T09:41:24;22.30;99.90
22224;DHT22;11281;52.194;21.006;2023-07-29T09:45:27;22.50;99.90
22224;DHT22;11281;52.194;21.006;2023-07-29T09:49:35;22.60;99.90
22224;DHT22;11281;52.194;21.006;2023-07-29T09:53:47;22.90;99.90
22224;DHT22;11281;52.194;21.006;2023-07-29T09:58:00;23.00;99.90
22224;DHT22;11281;52.194;21.006;2023-07-29T10:02:04;22.60;99.90
22224;DHT22;11281;52.194;21.006;2023-07-29T10:06:06;22.60;99.90
22224;DHT22;11281;52.194;21.006;2023-07-29T10:10:09;22.60;99.90
22224;DHT22;11281;52.194;21.006;2023-07-29T10:14:11;22.70;99.90
22224;DHT22;11281;52.194;21.006;2023-07-29T10:18:13;22.80;99.90
22224;DHT22;11281;52.194;21.006;2023-07-29T10:22:17;22.70;99.90
22224;DHT22;11281;52.194;21.006;2023-07-29T10:26:22;23.00;99.90
22224;DHT22;11281;52.194;21.006;2023-07-29T10:30:24;23.10;99.90
22224;DHT22;11281;52.194;21.006;2023-07-29T10:34:26;23.40;99.90
22224;DHT22;11281;52.194;21.006;2023-07-29T10:38:28;23.40;99.90
22224;DHT22;11281;52.194;21.006;2023-07-29T10:42:30;23.50;99.90
22224;DHT22;11281;52.194;21.006;2023-07-29T10:46:35;23.40;99.90
22224;DHT22;11281;52.194;21.006;2023-07-29T10:50:36;23.60;99.90
22224;DHT22;11281;52.194;21.006;2023-07-29T10:54:46;23.90;99.90
22224;DHT22;11281;52.194;21.006;2023-07-29T10:58:48;23.80;99.90
22224;DHT22;11281;52.194;21.006;2023-07-29T11:02:59;23.60;99.90
22224;DHT22;11281;52.194;21.006;2023-07-29T11:11:11;23.10;99.90
22224;DHT22;11281;52.194;21.006;2023-07-29T11:15:25;23.70;99.90
22224;DHT22;11281;52.194;21.006;2023-07-29T11:19:28;23.70;99.90
22224;DHT22;11281;52.194;21.006;2023-07-29T11:23:32;23.80;99.90
22224;DHT22;11281;52.194;21.006;2023-07-29T11:27:36;23.90;99.90
22224;DHT22;11281;52.194;21.006;2023-07-29T11:31:41;24.20;99.90
22224;DHT22;11281;52.194;21.006;2023-07-29T11:35:43;24.20;99.90
22224;DHT22;11281;52.194;21.006;2023-07-29T11:39:45;23.90;99.90
22224;DHT22;11281;52.194;21.006;2023-07-29T11:43:46;23.80;99.90
22224;DHT22;11281;52.194;21.006;2023-07-29T11:47:48;24.40;99.90
22224;DHT22;11281;52.194;21.006;2023-07-29T11:51:50;24.20;99.90
22224;DHT22;11281;52.194;21.006;2023-07-29T11:55:52;23.90;99.90
22224;DHT22;11281;52.194;21.006;2023-07-29T11:59:54;23.80;99.90
22224;DHT22;11281;52.194;21.006;2023-07-29T12:03:57;24.00;99.90
22224;DHT22;11281;52.194;21.006;2023-07-29T12:07:58;24.30;99.90
22224;DHT22;11281;52.194;21.006;2023-07-29T12:12:01;24.10;99.90
22224;DHT22;11281;52.194;21.006;2023-07-29T12:16:06;23.50;99.90
22224;DHT22;11281;52.194;21.006;2023-07-29T12:20:09;23.90;99.90
22224;DHT22;11281;52.194;21.006;2023-07-29T12:24:12;23.90;99.90
22224;DHT22;11281;52.194;21.006;2023-07-29T12:28:15;24.00;99.90
22224;DHT22;11281;52.194;21.006;2023-07-29T12:32:17;23.90;99.90
22224;DHT22;11281;52.194;21.006;2023-07-29T12:36:18;24.20;99.90
22224;DHT22;11281;52.194;21.006;2023-07-29T12:44:25;24.70;99.90
22224;DHT22;11281;52.194;21.006;2023-07-29T12:48:29;24.60;99.90
22224;DHT22;11281;52.194;21.006;2023-07-29T12:52:30;25.00;99.90
22224;DHT22;11281;52.194;21.006;2023-07-29T12:56:32;24.90;99.90
22224;DHT22;11281;52.194;21.006;2023-07-29T13:00:34;25.00;99.90
22224;DHT22;11281;52.194;21.006;2023-07-29T13:04:36;25.20;99.90
22224;DHT22;11281;52.194;21.006;2023-07-29T13:08:37;25.40;99.90
22224;DHT22;11281;52.194;21.006;2023-07-29T13:12:39;25.30;99.90
22224;DHT22;11281;52.194;21.006;2023-07-29T13:16:41;24.90;99.90
22224;DHT22;11281;52.194;21.006;2023-07-29T13:20:43;24.90;99.90
22224;DHT22;11281;52.194;21.006;2023-07-29T13:24:44;25.30;99.90
22224;DHT22;11281;52.194;21.006;2023-07-29T13:28:46;25.30;99.90
22224;DHT22;11281;52.194;21.006;2023-07-29T13:32:47;25.00;99.90
22224;DHT22;11281;52.194;21.006;2023-07-29T13:36:49;24.90;99.90
22224;DHT22;11281;52.194;21.006;2023-07-29T13:40:52;24.80;99.90
22224;DHT22;11281;52.194;21.006;2023-07-29T13:44:53;25.00;99.90
22224;DHT22;11281;52.194;21.006;2023-07-29T13:48:55;25.60;99.90
22224;DHT22;11281;52.194;21.006;2023-07-29T13:52:57;25.60;99.90
22224;DHT22;11281;52.194;21.006;2023-07-29T13:56:58;25.70;99.90
22224;DHT22;11281;52.194;21.006;2023-07-29T14:01:00;25.30;99.90
22224;DHT22;11281;52.194;21.006;2023-07-29T14:05:02;25.40;99.90
22224;DHT22;11281;52.194;21.006;2023-07-29T14:09:04;25.50;99.90
22224;DHT22;11281;52.194;21.006;2023-07-29T14:13:06;25.30;99.90
22224;DHT22;11281;52.194;21.006;2023-07-29T14:17:08;25.60;99.90
22224;DHT22;11281;52.194;21.006;2023-07-29T14:21:11;25.40;99.90
22224;DHT22;11281;52.194;21.006;2023-07-29T14:25:12;25.40;99.90
22224;DHT22;11281;52.194;21.006;2023-07-29T14:29:16;25.40;99.90
22224;DHT22;11281;52.194;21.006;2023-07-29T14:33:18;25.70;99.90
22224;DHT22;11281;52.194;21.006;2023-07-29T14:37:19;25.50;99.90
22224;DHT22;11281;52.194;21.006;2023-07-29T14:41:21;25.60;99.90
22224;DHT22;11281;52.194;21.006;2023-07-29T14:45:26;25.90;99.90
22224;DHT22;11281;52.194;21.006;2023-07-29T14:49:28;25.50;99.90
22224;DHT22;11281;52.194;21.006;2023-07-29T14:53:29;25.20;99.90
22224;DHT22;11281;52.194;21.006;2023-07-29T14:57:31;25.20;99.90
22224;DHT22;11281;52.194;21.006;2023-07-29T15:01:33;25.40;99.90
22224;DHT22;11281;52.194;21.006;2023-07-29T15:05:35;25.60;99.90
22224;DHT22;11281;52.194;21.006;2023-07-29T15:09:36;25.70;99.90
22224;DHT22;11281;52.194;21.006;2023-07-29T15:13:38;26.00;99.90
22224;DHT22;11281;52.194;21.006;2023-07-29T15:17:39;25.80;99.90
22224;DHT22;11281;52.194;21.006;2023-07-29T15:21:41;25.20;99.90
22224;DHT22;11281;52.194;21.006;2023-07-29T15:25:43;25.20;99.90
22224;DHT22;11281;52.194;21.006;2023-07-29T15:29:44;25.10;99.90
22224;DHT22;11281;52.194;21.006;2023-07-29T15:33:46;24.90;99.90
22224;DHT22;11281;52.194;21.006;2023-07-29T15:37:48;25.20;99.90
22224;DHT22;11281;52.194;21.006;2023-07-29T15:41:50;25.20;99.90
22224;DHT22;11281;52.194;21.006;2023-07-29T15:45:51;25.10;99.90
22224;DHT22;11281;52.194;21.006;2023-07-29T15:49:53;24.80;99.90
22224;DHT22;11281;52.194;21.006;2023-07-29T15:53:54;24.50;99.90
22224;DHT22;11281;52.194;21.006;2023-07-29T15:57:56;24.80;99.90
22224;DHT22;11281;52.194;21.006;2023-07-29T16:01:58;24.70;99.90
22224;DHT22;11281;52.194;21.006;2023-07-29T16:06:00;24.70;99.90
22224;DHT22;11281;52.194;21.006;2023-07-29T16:10:03;24.50;99.90
22224;DHT22;11281;52.194;21.006;2023-07-29T16:14:06;24.40;99.90
22224;DHT22;11281;52.194;21.006;2023-07-29T16:18:07;24.20;99.90
22224;DHT22;11281;52.194;21.006;2023-07-29T16:22:09;24.30;99.90
22224;DHT22;11281;52.194;21.006;2023-07-29T16:26:11;24.30;99.90
22224;DHT22;11281;52.194;21.006;2023-07-29T16:30:13;24.40;99.90
22224;DHT22;11281;52.194;21.006;2023-07-29T16:34:15;24.60;99.90
22224;DHT22;11281;52.194;21.006;2023-07-29T16:38:17;24.60;99.90
22224;DHT22;11281;52.194;21.006;2023-07-29T16:42:19;24.60;99.90
22224;DHT22;11281;52.194;21.006;2023-07-29T16:46:21;24.40;99.90
22224;DHT22;11281;52.194;21.006;2023-07-29T16:50:23;24.00;99.90
22224;DHT22;11281;52.194;21.006;2023-07-29T16:54:24;23.80;99.90
22224;DHT22;11281;52.194;21.006;2023-07-29T16:58:26;23.80;99.90
22224;DHT22;11281;52.194;21.006;2023-07-29T17:02:28;23.50;99.90
22224;DHT22;11281;52.194;21.006;2023-07-29T17:06:30;23.30;99.90
22224;DHT22;11281;52.194;21.006;2023-07-29T17:10:31;23.10;99.90
22224;DHT22;11281;52.194;21.006;2023-07-29T17:14:33;22.80;99.90
22224;DHT22;11281;52.194;21.006;2023-07-29T17:18:35;22.60;99.90
22224;DHT22;11281;52.194;21.006;2023-07-29T17:22:37;22.40;99.90
22224;DHT22;11281;52.194;21.006;2023-07-29T17:26:39;22.20;99.90
22224;DHT22;11281;52.194;21.006;2023-07-29T17:30:41;22.10;99.90
22224;DHT22;11281;52.194;21.006;2023-07-29T17:34:43;21.90;99.90
22224;DHT22;11281;52.194;21.006;2023-07-29T17:38:45;21.80;99.90
22224;DHT22;11281;52.194;21.006;2023-07-29T17:42:46;21.70;99.90
22224;DHT22;11281;52.194;21.006;2023-07-29T17:46:48;21.60;99.90
22224;DHT22;11281;52.194;21.006;2023-07-29T17:50:50;21.50;99.90
22224;DHT22;11281;52.194;21.006;2023-07-29T17:54:52;21.40;99.90
22224;DHT22;11281;52.194;21.006;2023-07-29T17:58:54;21.30;99.90
22224;DHT22;11281;52.194;21.006;2023-07-29T18:02:56;21.10;99.90
22224;DHT22;11281;52.194;21.006;2023-07-29T18:06:58;21.00;99.90
22224;DHT22;11281;52.194;21.006;2023-07-29T18:11:00;20.90;99.90
22224;DHT22;11281;52.194;21.006;2023-07-29T18:15:01;20.80;99.90
22224;DHT22;11281;52.194;21.006;2023-07-29T18:19:04;20.70;99.90
22224;DHT22;11281;52.194;21.006;2023-07-29T18:23:05;20.60;99.90
22224;DHT22;11281;52.194;21.006;2023-07-29T18:27:08;20.50;99.90
22224;DHT22;11281;52.194;21.006;2023-07-29T18:31:10;20.40;99.90
22224;DHT22;11281;52.194;21.006;2023-07-29T18:35:12;20.20;99.90
22224;DHT22;11281;52.194;21.006;2023-07-29T18:39:20;20.10;99.90
22224;DHT22;11281;52.194;21.006;2023-07-29T18:43:21;20.00;99.90
22224;DHT22;11281;52.194;21.006;2023-07-29T18:47:23;19.90;99.90
22224;DHT22;11281;52.194;21.006;2023-07-29T18:51:25;19.80;99.90
22224;DHT22;11281;52.194;21.006;2023-07-29T18:55:27;19.60;99.90
22224;DHT22;11281;52.194;21.006;2023-07-29T18:59:30;19.50;99.90
22224;DHT22;11281;52.194;21.006;2023-07-29T19:03:31;19.50;99.90
22224;DHT22;11281;52.194;21.006;2023-07-29T19:07:33;19.30;99.90
22224;DHT22;11281;52.194;21.006;2023-07-29T19:11:37;19.30;99.90
22224;DHT22;11281;52.194;21.006;2023-07-29T19:15:39;19.30;99.90
22224;DHT22;11281;52.194;21.006;2023-07-29T19:19:41;19.20;99.90
22224;DHT22;11281;52.194;21.006;2023-07-29T19:23:43;19.20;99.90
22224;DHT22;11281;52.194;21.006;2023-07-29T19:27:44;19.20;99.90
22224;DHT22;11281;52.194;21.006;2023-07-29T19:31:46;19.20;99.90
22224;DHT22;11281;52.194;21.006;2023-07-29T19:35:53;19.20;99.90
22224;DHT22;11281;52.194;21.006;2023-07-29T19:39:56;19.30;99.90
22224;DHT22;11281;52.194;21.006;2023-07-29T19:43:58;19.30;99.90
22224;DHT22;11281;52.194;21.006;2023-07-29T19:48:00;19.30;99.90
22224;DHT22;11281;52.194;21.006;2023-07-29T19:52:05;19.30;99.90
22224;DHT22;11281;52.194;21.006;2023-07-29T19:56:07;19.40;99.90
22224;DHT22;11281;52.194;21.006;2023-07-29T20:00:09;19.40;99.90
22224;DHT22;11281;52.194;21.006;2023-07-29T20:04:12;19.30;99.90
22224;DHT22;11281;52.194;21.006;2023-07-29T20:08:14;19.40;99.90
22224;DHT22;11281;52.194;21.006;2023-07-29T20:12:16;19.50;99.90
22224;DHT22;11281;52.194;21.006;2023-07-29T20:16:18;19.60;99.90
22224;DHT22;11281;52.194;21.006;2023-07-29T20:20:20;19.50;99.90
22224;DHT22;11281;52.194;21.006;2023-07-29T20:24:22;19.50;99.90
22224;DHT22;11281;52.194;21.006;2023-07-29T20:28:24;19.50;99.90
22224;DHT22;11281;52.194;21.006;2023-07-29T20:32:26;19.50;99.90
22224;DHT22;11281;52.194;21.006;2023-07-29T20:36:28;19.60;99.90
22224;DHT22;11281;52.194;21.006;2023-07-29T20:40:31;19.80;99.90
22224;DHT22;11281;52.194;21.006;2023-07-29T20:44:32;19.60;99.90
22224;DHT22;11281;52.194;21.006;2023-07-29T20:48:34;19.70;99.90
22224;DHT22;11281;52.194;21.006;2023-07-29T20:52:35;19.60;99.90
22224;DHT22;11281;52.194;21.006;2023-07-29T20:56:37;19.60;99.90
22224;DHT22;11281;52.194;21.006;2023-07-29T21:00:39;19.60;99.90
22224;DHT22;11281;52.194;21.006;2023-07-29T21:04:41;19.70;99.90
22224;DHT22;11281;52.194;21.006;2023-07-29T21:08:43;19.70;99.90
22224;DHT22;11281;52.194;21.006;2023-07-29T21:12:46;19.70;99.90
22224;DHT22;11281;52.194;21.006;2023-07-29T21:16:48;19.90;99.90
22224;DHT22;11281;52.194;21.006;2023-07-29T21:20:50;20.00;99.90
22224;DHT22;11281;52.194;21.006;2023-07-29T21:24:52;19.70;99.90
22224;DHT22;11281;52.194;21.006;2023-07-29T21:28:54;19.00;99.90
22224;DHT22;11281;52.194;21.006;2023-07-29T21:32:57;18.80;99.90
22224;DHT22;11281;52.194;21.006;2023-07-29T21:36:59;18.40;99.90
22224;DHT22;11281;52.194;21.006;2023-07-29T21:41:01;18.20;99.90
22224;DHT22;11281;52.194;21.006;2023-07-29T21:45:02;18.00;99.90
22224;DHT22;11281;52.194;21.006;2023-07-29T21:49:05;18.00;99.90
22224;DHT22;11281;52.194;21.006;2023-07-29T21:53:06;17.90;99.90
22224;DHT22;11281;52.194;21.006;2023-07-29T21:57:08;17.90;99.90
22224;DHT22;11281;52.194;21.006;2023-07-29T22:01:10;17.80;99.90
22224;DHT22;11281;52.194;21.006;2023-07-29T22:05:11;17.80;99.90
22224;DHT22;11281;52.194;21.006;2023-07-29T22:09:13;17.80;99.90
22224;DHT22;11281;52.194;21.006;2023-07-29T22:13:15;17.70;99.90
22224;DHT22;11281;52.194;21.006;2023-07-29T22:17:17;17.80;99.90
22224;DHT22;11281;52.194;21.006;2023-07-29T22:21:19;17.70;99.90
22224;DHT22;11281;52.194;21.006;2023-07-29T22:25:21;17.70;99.90
22224;DHT22;11281;52.194;21.006;2023-07-29T22:29:23;17.70;99.90
22224;DHT22;11281;52.194;21.006;2023-07-29T22:33:25;17.60;99.90
22224;DHT22;11281;52.194;21.006;2023-07-29T22:37:27;17.60;99.90
22224;DHT22;11281;52.194;21.006;2023-07-29T22:41:29;17.50;99.90
22224;DHT22;11281;52.194;21.006;2023-07-29T22:45:31;17.50;99.90
22224;DHT22;11281;52.194;21.006;2023-07-29T22:49:32;17.50;99.90
22224;DHT22;11281;52.194;21.006;2023-07-29T22:53:34;17.40;99.90
22224;DHT22;11281;52.194;21.006;2023-07-29T22:57:36;17.40;99.90
22224;DHT22;11281;52.194;21.006;2023-07-29T23:01:37;17.40;99.90
22224;DHT22;11281;52.194;21.006;2023-07-29T23:05:39;17.40;99.90
22224;DHT22;11281;52.194;21.006;2023-07-29T23:09:41;17.40;99.90
22224;DHT22;11281;52.194;21.006;2023-07-29T23:13:43;17.40;99.90
22224;DHT22;11281;52.194;21.006;2023-07-29T23:17:45;17.40;99.90
22224;DHT22;11281;52.194;21.006;2023-07-29T23:21:46;17.40;99.90
22224;DHT22;11281;52.194;21.006;2023-07-29T23:25:48;17.40;99.90
22224;DHT22;11281;52.194;21.006;2023-07-29T23:29:50;17.40;99.90
22224;DHT22;11281;52.194;21.006;2023-07-29T23:33:51;17.40;99.90
22224;DHT22;11281;52.194;21.006;2023-07-29T23:37:53;17.40;99.90
22224;DHT22;11281;52.194;21.006;2023-07-29T23:41:55;17.30;99.90
22224;DHT22;11281;52.194;21.006;2023-07-29T23:45:56;17.40;99.90
22224;DHT22;11281;52.194;21.006;2023-07-29T23:49:58;17.40;99.90
22224;DHT22;11281;52.194;21.006;2023-07-29T23:54:00;17.30;99.90
22224;DHT22;11281;52.194;21.006;2023-07-29T23:58:02;17.30;99.90
